createdAt,value
2019-05-02T00:00:45.116Z,70.50
2019-05-02T00:03:14.878Z,71.00
2019-05-02T00:05:44.595Z,71.20
2019-05-02T00:08:14.908Z,71.20
2019-05-02T00:10:45.972Z,72.10
2019-05-02T00:13:15.398Z,71.80
2019-05-02T00:15:44.834Z,71.90
2019-05-02T00:18:14.530Z,72.10
2019-05-02T00:20:43.985Z,71.70
2019-05-02T00:23:13.850Z,72.30
2019-05-02T00:25:47.311Z,72.40
2019-05-02T00:28:14.340Z,72.20
2019-05-02T00:30:44.390Z,72.40
2019-05-02T00:33:13.875Z,72.60
2019-05-02T00:35:46.188Z,72.90
2019-05-02T00:38:14.511Z,72.40
2019-05-02T00:40:46.343Z,72.30
2019-05-02T00:43:15.372Z,72.50
2019-05-02T00:45:44.816Z,73.20
2019-05-02T00:48:19.237Z,73.10
2019-05-02T00:50:50.843Z,73.10
2019-05-02T00:53:20.790Z,73.30
2019-05-02T00:55:50.230Z,73.10
2019-05-02T00:58:19.584Z,73.30
2019-05-02T01:01:06.661Z,73.90
2019-05-02T01:03:37.677Z,73.80
2019-05-02T01:06:13.966Z,73.10
2019-05-02T01:08:38.268Z,74.00
2019-05-02T01:11:07.637Z,73.60
2019-05-02T01:13:36.991Z,73.50
2019-05-02T01:16:06.364Z,73.60
2019-05-02T01:18:37.121Z,73.60
2019-05-02T01:21:26.474Z,73.50
2019-05-02T01:23:58.853Z,74.00
2019-05-02T01:26:29.264Z,74.20
2019-05-02T01:29:04.086Z,74.50
2019-05-02T01:31:37.747Z,74.60
2019-05-02T01:34:18.109Z,74.90
2019-05-02T01:36:55.663Z,74.60
2019-05-02T01:39:25.374Z,74.80
2019-05-02T01:41:54.831Z,74.70
2019-05-02T01:44:24.201Z,74.80
2019-05-02T01:46:54.115Z,74.90
2019-05-02T01:49:24.624Z,75.10
2019-05-02T01:51:54.121Z,75.00
2019-05-02T01:54:23.473Z,75.10
2019-05-02T01:56:52.971Z,75.20
2019-05-02T01:59:22.323Z,75.20
2019-05-02T02:01:53.218Z,75.30
2019-05-02T02:04:22.806Z,76.30
2019-05-02T02:06:52.194Z,74.90
2019-05-02T02:09:21.626Z,74.70
2019-05-02T02:11:50.988Z,75.70
2019-05-02T02:14:20.416Z,75.70
2019-05-02T02:16:49.784Z,75.60
2019-05-02T02:19:20.824Z,76.20
2019-05-02T02:22:06.702Z,76.50
2019-05-02T02:24:38.451Z,77.70
2019-05-02T02:27:07.912Z,76.20
2019-05-02T02:29:38.943Z,76.60
2019-05-02T02:32:08.503Z,76.10
2019-05-02T02:34:37.875Z,76.30
2019-05-02T02:37:12.597Z,76.30
2019-05-02T02:39:38.314Z,75.90
2019-05-02T02:42:07.679Z,76.50
2019-05-02T02:44:39.947Z,77.00
2019-05-02T02:47:12.217Z,77.70
2019-05-02T02:49:41.015Z,76.90
2019-05-02T02:52:10.395Z,77.60
2019-05-02T02:54:43.176Z,77.50
2019-05-02T02:57:21.870Z,76.80
2019-05-02T02:59:41.912Z,77.50
2019-05-02T03:02:12.179Z,77.50
2019-05-02T03:04:44.252Z,77.80
2019-05-02T03:07:24.587Z,78.20
2019-05-02T03:09:44.340Z,79.10
2019-05-02T03:12:21.625Z,79.70
2019-05-02T03:14:58.885Z,80.30
2019-05-02T03:17:28.960Z,80.90
2019-05-02T03:20:01.387Z,78.70
2019-05-02T03:22:34.855Z,81.20
2019-05-02T03:25:00.649Z,79.40
2019-05-02T03:27:37.468Z,80.70
2019-05-02T03:30:01.359Z,80.80
2019-05-02T03:32:35.041Z,81.10
2019-05-02T03:35:02.282Z,79.80
2019-05-02T03:37:32.231Z,80.80
2019-05-02T03:40:01.625Z,81.60
2019-05-02T03:42:43.828Z,83.10
2019-05-02T03:45:04.979Z,82.50
2019-05-02T03:47:36.812Z,82.20
2019-05-02T03:50:09.458Z,81.80
2019-05-02T03:52:43.791Z,84.00
2019-05-02T03:55:10.069Z,82.70
2019-05-02T03:57:42.237Z,84.10
2019-05-02T04:00:30.071Z,83.20
2019-05-02T04:03:02.142Z,84.60
2019-05-02T04:05:33.788Z,82.90
2019-05-02T04:08:02.170Z,83.70
2019-05-02T04:10:52.746Z,84.80
2019-05-02T04:13:18.006Z,84.00
2019-05-02T04:15:47.700Z,84.70
2019-05-02T04:18:17.966Z,83.80
2019-05-02T04:20:49.541Z,85.00
2019-05-02T04:23:21.179Z,84.90
2019-05-02T04:25:50.437Z,84.40
2019-05-02T04:28:21.443Z,84.70
2019-05-02T04:30:51.808Z,87.00
2019-05-02T04:33:21.936Z,85.70
2019-05-02T04:35:51.359Z,86.20
2019-05-02T04:38:30.991Z,87.90
2019-05-02T04:40:52.004Z,86.90
2019-05-02T04:43:21.389Z,87.30
2019-05-02T04:45:56.176Z,87.00
2019-05-02T04:48:21.974Z,87.60
2019-05-02T04:50:51.756Z,87.60
2019-05-02T04:53:25.196Z,88.90
2019-05-02T04:56:01.556Z,88.80
2019-05-02T04:58:27.655Z,89.40
2019-05-02T05:01:00.992Z,90.00
2019-05-02T05:03:25.729Z,90.20
2019-05-02T05:05:59.460Z,90.10
2019-05-02T05:08:31.715Z,90.40
2019-05-02T05:10:58.101Z,90.90
2019-05-02T05:13:29.093Z,90.80
2019-05-02T05:15:58.604Z,91.20
2019-05-02T05:18:28.019Z,90.70
2019-05-02T05:20:57.786Z,91.60
2019-05-02T05:23:34.953Z,91.80
2019-05-02T05:26:04.809Z,92.00
2019-05-02T05:28:35.057Z,92.60
2019-05-02T05:31:07.529Z,92.60
2019-05-02T05:33:37.746Z,92.60
2019-05-02T05:36:08.242Z,93.40
2019-05-02T05:38:40.429Z,93.30
2019-05-02T05:41:13.173Z,93.20
2019-05-02T05:43:40.197Z,92.90
2019-05-02T05:46:13.165Z,92.70
2019-05-02T05:48:42.402Z,92.70
2019-05-02T05:51:16.051Z,92.30
2019-05-02T05:53:42.839Z,92.90
2019-05-02T05:56:12.194Z,92.80
2019-05-02T05:58:48.061Z,92.60
2019-05-02T06:01:12.627Z,92.60
2019-05-02T06:03:44.713Z,92.60
2019-05-02T06:06:14.837Z,93.00
2019-05-02T06:08:44.131Z,92.90
2019-05-02T06:11:14.817Z,93.10
2019-05-02T06:13:48.783Z,93.20
2019-05-02T06:16:16.658Z,93.10
2019-05-02T06:18:46.415Z,93.20
2019-05-02T06:21:17.188Z,92.90
2019-05-02T06:23:47.270Z,93.40
2019-05-02T06:26:16.686Z,93.20
2019-05-02T06:28:46.162Z,93.10
2019-05-02T06:31:17.234Z,92.30
2019-05-02T06:33:46.658Z,92.20
2019-05-02T06:36:16.083Z,91.50
2019-05-02T06:38:45.558Z,91.30
2019-05-02T06:41:16.225Z,91.60
2019-05-02T06:43:46.733Z,91.10
2019-05-02T06:46:21.675Z,91.20
2019-05-02T06:48:52.281Z,91.40
2019-05-02T06:51:20.861Z,90.90
2019-05-02T06:53:50.458Z,90.80
2019-05-02T06:56:20.079Z,91.00
2019-05-02T06:58:49.455Z,90.70
2019-05-02T07:01:21.131Z,90.50
2019-05-02T07:03:50.208Z,89.70
2019-05-02T07:06:19.827Z,89.90
2019-05-02T07:08:49.367Z,89.50
2019-05-02T07:11:18.787Z,89.80
2019-05-02T07:13:48.180Z,89.50
2019-05-02T07:16:37.600Z,89.40
2019-05-02T07:19:16.485Z,88.80
2019-05-02T07:21:45.315Z,87.20
2019-05-02T07:24:14.791Z,87.50
2019-05-02T07:26:44.211Z,88.30
2019-05-02T07:29:17.064Z,87.30
2019-05-02T07:31:47.790Z,86.60
2019-05-02T07:34:15.840Z,86.60
2019-05-02T07:36:45.212Z,86.30
2019-05-02T07:39:14.656Z,85.50
2019-05-02T07:41:44.090Z,85.70
2019-05-02T07:44:13.734Z,86.30
2019-05-02T07:46:51.708Z,86.00
2019-05-02T07:49:14.390Z,86.00
2019-05-02T07:51:43.811Z,87.10
2019-05-02T07:54:13.319Z,86.30
2019-05-02T07:56:42.771Z,85.70
2019-05-02T07:59:12.214Z,85.00
2019-05-02T08:01:44.879Z,83.60
2019-05-02T08:04:13.026Z,83.80
2019-05-02T08:06:44.672Z,84.60
2019-05-02T08:09:14.651Z,83.00
2019-05-02T08:11:44.076Z,83.70
2019-05-02T08:14:13.453Z,82.80
2019-05-02T08:16:42.795Z,83.30
2019-05-02T08:19:12.142Z,82.40
2019-05-02T08:21:41.507Z,80.90
2019-05-02T08:24:10.866Z,80.90
2019-05-02T08:26:59.871Z,82.10
2019-05-02T08:29:30.772Z,80.20
2019-05-02T08:32:00.392Z,80.20
2019-05-02T08:34:31.459Z,80.20
2019-05-02T08:37:03.415Z,81.20
2019-05-02T08:39:33.954Z,80.90
2019-05-02T08:42:04.150Z,80.00
2019-05-02T08:44:33.503Z,80.10
2019-05-02T08:47:02.961Z,77.30
2019-05-02T08:49:32.393Z,79.70
2019-05-02T08:52:01.756Z,79.00
2019-05-02T08:54:32.910Z,79.60
2019-05-02T08:57:02.468Z,78.20
2019-05-02T08:59:31.841Z,78.20
2019-05-02T09:02:01.289Z,76.10
2019-05-02T09:04:30.814Z,75.90
2019-05-02T09:07:00.748Z,76.10
2019-05-02T09:09:30.508Z,75.30
2019-05-02T09:12:09.753Z,76.20
2019-05-02T09:14:32.192Z,74.90
2019-05-02T09:17:08.467Z,75.00
2019-05-02T09:19:34.818Z,74.90
2019-05-02T09:22:07.700Z,73.20
2019-05-02T09:24:35.226Z,75.50
2019-05-02T09:27:04.814Z,76.20
2019-05-02T09:29:37.399Z,73.30
2019-05-02T09:32:05.424Z,72.70
2019-05-02T09:34:34.780Z,71.70
2019-05-02T09:37:04.286Z,70.60
2019-05-02T09:39:36.551Z,72.30
2019-05-02T09:42:06.585Z,70.00
2019-05-02T09:44:35.999Z,70.90
2019-05-02T09:47:05.427Z,71.30
2019-05-02T09:49:34.780Z,68.30
2019-05-02T09:52:04.500Z,72.20
2019-05-02T09:54:36.941Z,68.50
2019-05-02T09:57:05.247Z,68.40
2019-05-02T09:59:34.815Z,66.60
2019-05-02T10:02:05.196Z,69.60
2019-05-02T10:04:34.552Z,70.60
2019-05-02T10:07:04.299Z,66.20
2019-05-02T10:09:33.715Z,67.30
2019-05-02T10:12:03.084Z,65.80
2019-05-02T10:14:33.153Z,64.00
2019-05-02T10:17:06.988Z,65.60
2019-05-02T10:19:33.834Z,63.00
2019-05-02T10:22:03.297Z,65.90
2019-05-02T10:24:32.726Z,64.50
2019-05-02T10:27:08.237Z,67.30
2019-05-02T10:29:33.303Z,66.40
2019-05-02T10:32:07.512Z,66.70
2019-05-02T10:34:34.725Z,66.20
2019-05-02T10:37:04.170Z,62.80
2019-05-02T10:39:37.679Z,62.50
2019-05-02T10:42:04.863Z,63.50
2019-05-02T10:44:36.538Z,67.30
2019-05-02T10:47:05.467Z,61.60
2019-05-02T10:49:36.455Z,62.50
2019-05-02T10:52:06.304Z,65.40
2019-05-02T10:54:37.457Z,64.30
2019-05-02T10:57:06.778Z,65.30
2019-05-02T10:59:36.132Z,63.60
2019-05-02T11:02:19.195Z,63.80
2019-05-02T11:05:02.750Z,63.80
2019-05-02T11:07:32.672Z,62.70
2019-05-02T11:10:06.538Z,64.80
2019-05-02T11:12:46.495Z,63.20
2019-05-02T11:15:23.387Z,66.20
2019-05-02T11:17:52.995Z,62.20
2019-05-02T11:20:22.515Z,62.80
2019-05-02T11:22:52.646Z,60.80
2019-05-02T11:25:22.987Z,60.40
2019-05-02T11:27:52.615Z,60.40
2019-05-02T11:30:26.404Z,63.20
2019-05-02T11:32:53.409Z,63.20
2019-05-02T11:35:22.915Z,60.80
2019-05-02T11:37:52.291Z,59.90
2019-05-02T11:40:22.759Z,61.60
2019-05-02T11:42:52.321Z,59.40
2019-05-02T11:45:22.694Z,57.20
2019-05-02T11:47:54.457Z,57.70
2019-05-02T11:50:26.711Z,56.20
2019-05-02T11:52:54.383Z,54.50
2019-05-02T11:55:28.837Z,54.80
2019-05-02T11:57:55.095Z,55.50
2019-05-02T12:00:24.541Z,55.00
2019-05-02T12:03:12.682Z,54.40
2019-05-02T12:05:43.201Z,53.90
2019-05-02T12:08:12.567Z,54.00
2019-05-02T12:10:42.378Z,55.50
2019-05-02T12:13:16.042Z,55.30
2019-05-02T12:15:44.373Z,52.50
2019-05-02T12:18:13.863Z,54.10
2019-05-02T12:20:43.303Z,53.80
2019-05-02T12:23:13.084Z,55.40
2019-05-02T12:25:42.632Z,56.00
2019-05-02T12:28:12.212Z,55.80
2019-05-02T12:30:42.017Z,55.10
2019-05-02T12:33:12.489Z,56.30
2019-05-02T12:35:43.256Z,55.70
2019-05-02T12:38:13.115Z,55.50
2019-05-02T12:40:42.772Z,55.90
2019-05-02T12:43:12.252Z,55.80
2019-05-02T12:45:42.295Z,56.70
2019-05-02T12:48:12.989Z,56.20
2019-05-02T12:50:42.639Z,55.80
2019-05-02T12:53:12.613Z,54.80
2019-05-02T12:55:42.364Z,55.70
2019-05-02T12:58:12.538Z,54.90
2019-05-02T13:00:43.055Z,55.00
2019-05-02T13:03:31.748Z,54.70
2019-05-02T13:06:03.053Z,55.80
2019-05-02T13:08:34.481Z,55.00
2019-05-02T13:11:17.574Z,55.60
2019-05-02T13:13:47.224Z,56.10
2019-05-02T13:16:16.612Z,56.00
2019-05-02T13:18:46.046Z,56.10
2019-05-02T13:21:17.190Z,56.30
2019-05-02T13:23:48.282Z,56.40
2019-05-02T13:26:21.883Z,54.20
2019-05-02T13:28:49.075Z,54.50
2019-05-02T13:31:36.179Z,55.40
2019-05-02T13:34:19.400Z,54.70
2019-05-02T13:36:51.927Z,54.40
2019-05-02T13:39:35.562Z,56.90
2019-05-02T13:42:05.239Z,55.40
2019-05-02T13:44:36.321Z,55.50
2019-05-02T13:47:07.718Z,54.70
2019-05-02T13:49:50.583Z,55.20
2019-05-02T13:52:08.424Z,54.70
2019-05-02T13:54:38.642Z,55.00
2019-05-02T13:57:08.265Z,56.00
2019-05-02T13:59:37.677Z,54.70
2019-05-02T14:02:07.646Z,55.40
2019-05-02T14:04:37.036Z,54.80
2019-05-02T14:07:07.670Z,54.90
2019-05-02T14:09:44.849Z,55.00
2019-05-02T14:12:21.876Z,54.60
2019-05-02T14:14:51.952Z,55.00
2019-05-02T14:17:22.969Z,55.10
2019-05-02T14:20:01.186Z,53.70
2019-05-02T14:22:23.688Z,54.80
2019-05-02T14:24:53.234Z,53.20
2019-05-02T14:27:22.576Z,54.00
2019-05-02T14:29:52.520Z,53.30
2019-05-02T14:32:26.328Z,53.70
2019-05-02T14:34:57.581Z,54.90
2019-05-02T14:37:27.043Z,53.90
2019-05-02T14:39:58.052Z,54.80
2019-05-02T14:42:27.578Z,54.70
2019-05-02T14:45:08.944Z,54.90
2019-05-02T14:47:27.992Z,54.80
2019-05-02T14:50:02.193Z,55.10
2019-05-02T14:52:28.587Z,54.40
2019-05-02T14:54:58.117Z,55.70
2019-05-02T14:57:27.504Z,55.70
2019-05-02T14:59:59.674Z,55.40
2019-05-02T15:02:39.238Z,56.20
2019-05-02T15:05:07.195Z,57.00
2019-05-02T15:07:38.476Z,56.40
2019-05-02T15:10:08.272Z,56.40
2019-05-02T15:12:37.647Z,56.10
2019-05-02T15:15:08.420Z,54.70
2019-05-02T15:17:38.020Z,55.50
2019-05-02T15:20:09.391Z,55.40
2019-05-02T15:22:38.840Z,55.20
2019-05-02T15:25:13.673Z,55.90
2019-05-02T15:27:42.535Z,55.40
2019-05-02T15:30:11.292Z,56.50
2019-05-02T15:32:47.961Z,56.80
2019-05-02T15:35:28.116Z,55.90
2019-05-02T15:38:02.565Z,56.20
2019-05-02T15:43:04.541Z,56.70
2019-05-02T15:45:31.729Z,57.00
2019-05-02T15:48:02.640Z,56.50
2019-05-02T15:50:32.692Z,56.70
2019-05-02T15:53:09.811Z,56.50
2019-05-02T15:55:39.548Z,55.10
2019-05-02T15:58:07.638Z,56.30
2019-05-02T16:00:38.724Z,55.80
2019-05-02T16:03:08.225Z,55.70
2019-05-02T16:05:41.184Z,54.90
2019-05-02T16:08:09.157Z,55.30
2019-05-02T16:10:39.961Z,55.20
2019-05-02T16:13:13.481Z,54.40
2019-05-02T16:15:42.826Z,54.00
2019-05-02T16:18:12.814Z,54.50
2019-05-02T16:21:04.709Z,54.60
2019-05-02T16:23:31.855Z,54.80
2019-05-02T16:25:57.005Z,54.60
2019-05-02T16:28:26.652Z,53.90
2019-05-02T16:30:57.687Z,54.30
2019-05-02T16:33:27.081Z,53.90
2019-05-02T16:35:56.787Z,54.00
2019-05-02T16:38:26.923Z,52.80
2019-05-02T16:40:57.247Z,52.70
2019-05-02T16:43:28.349Z,52.30
2019-05-02T16:46:01.640Z,52.20
2019-05-02T16:48:37.403Z,52.30
2019-05-02T16:51:02.233Z,52.20
2019-05-02T16:53:33.349Z,51.80
2019-05-02T16:56:06.044Z,50.90
2019-05-02T16:58:38.035Z,52.20
2019-05-02T17:01:06.131Z,52.30
2019-05-02T17:03:35.559Z,52.40
2019-05-02T17:06:05.389Z,52.70
2019-05-02T17:08:44.457Z,53.10
2019-05-02T17:11:15.804Z,52.90
2019-05-02T17:13:45.335Z,53.20
2019-05-02T17:16:17.092Z,53.70
2019-05-02T17:18:48.314Z,52.70
2019-05-02T17:21:16.986Z,52.70
2019-05-02T17:23:48.381Z,52.70
2019-05-02T17:26:17.422Z,52.40
2019-05-02T17:28:47.184Z,52.80
2019-05-02T17:31:20.536Z,52.90
2019-05-02T17:33:51.072Z,52.70
2019-05-02T17:36:23.360Z,51.60
2019-05-02T17:38:53.790Z,52.00
2019-05-02T17:41:22.603Z,50.90
2019-05-02T17:43:52.268Z,51.10
2019-05-02T17:46:25.709Z,52.20
2019-05-02T17:48:53.890Z,50.90
2019-05-02T17:51:28.400Z,51.10
2019-05-02T17:53:56.269Z,51.20
2019-05-02T17:56:25.723Z,49.90
2019-05-02T17:58:58.351Z,51.00
2019-05-02T18:01:33.330Z,50.80
2019-05-02T18:04:01.940Z,50.40
2019-05-02T18:06:35.331Z,51.30
2019-05-02T18:09:03.704Z,50.80
2019-05-02T18:11:36.485Z,50.80
2019-05-02T18:14:10.306Z,50.90
2019-05-02T18:16:35.464Z,51.50
2019-05-02T18:19:05.095Z,50.80
2019-05-02T18:21:34.518Z,52.20
2019-05-02T18:24:06.049Z,51.50
2019-05-02T18:26:35.476Z,52.20
2019-05-02T18:29:06.870Z,52.80
2019-05-02T18:31:40.093Z,52.20
2019-05-02T18:34:07.217Z,52.50
2019-05-02T18:36:36.703Z,51.90
2019-05-02T18:39:08.071Z,53.00
2019-05-02T18:41:44.796Z,53.90
2019-05-02T18:44:08.662Z,52.20
2019-05-02T18:46:41.619Z,52.00
2019-05-02T18:49:09.355Z,53.00
2019-05-02T18:51:38.798Z,53.60
2019-05-02T18:54:08.263Z,53.10
2019-05-02T18:56:44.232Z,54.20
2019-05-02T18:59:08.887Z,55.90
2019-05-02T19:01:38.391Z,57.50
2019-05-02T19:04:07.899Z,59.20
2019-05-02T19:06:37.376Z,60.70
2019-05-02T19:09:09.967Z,61.80
2019-05-02T19:11:39.325Z,63.80
2019-05-02T19:14:08.777Z,64.40
2019-05-02T19:16:38.289Z,65.00
2019-05-02T19:19:07.640Z,65.80
2019-05-02T19:21:39.469Z,66.30
2019-05-02T19:24:08.452Z,67.40
2019-05-02T19:26:42.842Z,67.30
2019-05-02T19:29:17.106Z,67.70
2019-05-02T19:31:46.296Z,67.90
2019-05-02T19:34:16.722Z,68.00
2019-05-02T19:36:47.083Z,68.80
2019-05-02T19:39:16.570Z,69.40
2019-05-02T19:41:45.937Z,69.40
2019-05-02T19:44:15.526Z,70.30
2019-05-02T19:46:45.172Z,71.10
2019-05-02T19:49:16.297Z,71.50
2019-05-02T19:51:50.638Z,70.90
2019-05-02T19:54:16.971Z,72.20
2019-05-02T19:56:47.627Z,72.10
2019-05-02T19:59:24.631Z,72.10
2019-05-02T20:01:48.367Z,73.20
2019-05-02T20:04:17.916Z,72.70
2019-05-02T20:06:47.407Z,72.50
2019-05-02T20:09:16.842Z,72.80
2019-05-02T20:11:46.640Z,72.50
2019-05-02T20:14:16.135Z,73.40
2019-05-02T20:16:49.655Z,73.50
2019-05-02T20:19:25.361Z,73.20
2019-05-02T20:21:52.105Z,73.90
2019-05-02T20:24:22.690Z,74.10
2019-05-02T20:26:55.983Z,74.60
2019-05-02T20:29:23.440Z,74.50
2019-05-02T20:31:52.876Z,75.40
2019-05-02T20:34:22.393Z,75.20
2019-05-02T20:36:51.907Z,75.40
2019-05-02T20:39:22.454Z,76.60
2019-05-02T20:41:53.033Z,77.60
2019-05-02T20:44:22.589Z,78.20
2019-05-02T20:46:52.055Z,80.10
2019-05-02T20:49:21.496Z,79.20
2019-05-02T20:51:51.860Z,79.40
2019-05-02T20:54:21.266Z,79.80
2019-05-02T20:56:51.996Z,80.80
2019-05-02T20:59:21.907Z,80.80
2019-05-02T21:01:52.284Z,81.00
2019-05-02T21:04:22.840Z,82.20
2019-05-02T21:06:56.654Z,82.30
2019-05-02T21:09:42.443Z,83.70
2019-05-02T21:12:12.612Z,84.20
2019-05-02T21:14:42.219Z,83.60
2019-05-02T21:17:12.795Z,83.90
2019-05-02T21:19:42.275Z,84.10
2019-05-02T21:22:14.827Z,83.70
2019-05-02T21:24:44.370Z,85.30
2019-05-02T21:27:13.901Z,86.00
2019-05-02T21:29:43.256Z,85.80
2019-05-02T21:32:12.674Z,86.00
2019-05-02T21:34:42.479Z,84.90
2019-05-02T21:37:12.037Z,85.60
2019-05-02T21:39:42.522Z,85.40
2019-05-02T21:42:12.098Z,85.30
2019-05-02T21:44:42.230Z,85.40
2019-05-02T21:47:11.715Z,85.70
2019-05-02T21:49:43.075Z,85.90
2019-05-02T21:52:14.199Z,85.60
2019-05-02T21:54:45.268Z,84.60
2019-05-02T21:57:16.263Z,85.60
2019-05-02T21:59:45.615Z,86.10
2019-05-02T22:02:15.959Z,85.80
2019-05-02T22:04:45.335Z,85.70
2019-05-02T22:07:15.110Z,86.10
2019-05-02T22:09:44.539Z,86.00
2019-05-02T22:12:13.895Z,86.30
2019-05-02T22:14:43.236Z,85.50
2019-05-02T22:17:12.822Z,85.70
2019-05-02T22:19:42.236Z,86.20
2019-05-02T22:22:12.220Z,85.10
2019-05-02T22:24:42.116Z,85.60
2019-05-02T22:27:12.377Z,85.40
2019-05-02T22:29:42.999Z,85.80
2019-05-02T22:32:12.846Z,85.10
2019-05-02T22:34:42.633Z,84.50
2019-05-02T22:37:15.055Z,84.00
2019-05-02T22:39:52.026Z,84.50
2019-05-02T22:42:21.933Z,85.40
2019-05-02T22:44:51.567Z,85.50
2019-05-02T22:47:22.721Z,85.70
2019-05-02T22:49:52.361Z,85.20
2019-05-02T22:52:21.923Z,85.10
2019-05-02T22:54:52.347Z,84.80
2019-05-02T22:57:22.540Z,84.90
2019-05-02T22:59:52.254Z,85.00
2019-05-02T23:02:22.061Z,85.60
2019-05-02T23:04:52.570Z,85.80
2019-05-02T23:07:22.670Z,84.90
2019-05-02T23:09:52.789Z,86.10
2019-05-02T23:12:24.928Z,85.80
2019-05-02T23:14:53.659Z,85.20
2019-05-02T23:17:23.266Z,85.80
2019-05-02T23:19:53.099Z,85.60
2019-05-02T23:22:22.565Z,85.30
2019-05-02T23:24:53.638Z,85.60
2019-05-02T23:27:24.648Z,86.20
2019-05-02T23:29:54.191Z,85.70
2019-05-02T23:32:23.826Z,85.80
2019-05-02T23:34:53.446Z,85.10
2019-05-02T23:37:22.892Z,85.70
2019-05-02T23:39:52.365Z,86.20
2019-05-02T23:42:21.996Z,85.40
2019-05-02T23:44:51.909Z,85.70
2019-05-02T23:47:22.458Z,86.10
2019-05-02T23:49:52.153Z,85.90
2019-05-02T23:52:22.500Z,85.50
2019-05-02T23:54:52.694Z,86.20
2019-05-02T23:57:22.964Z,86.00
2019-05-02T23:59:52.518Z,85.80
